VAAH Airport Information

Runway Information
Runway 05 Length 11447 ft width 150 ft
Elevation 180 ft Threshold 0 ft Heading 45
Runway 23 Length 11447 ft Width 150 ft
Elevation 189 ft Threshold 0 ft Heading 225
Airport Frequencies
Type ACC Name RADAR Frequency 123.75 MHZ
Type APP Name APPROACH Frequency 119.8 MHZ
Type ATIS Name ATIS Frequency 126.8 MHZ
Type TWR Name TOWER Frequency 119.6 MHZ
Airport Navaids
Type VOR-DME Name Ahmedabad Frequency 113100 KHZ
Type NDB Name Ahmedabad Frequency 215 KHZ
Airport Weather Information & NOTAM
ADDS - METARS form results

(0138 UTC 23 April 2018)
 
METAR text: VAAH 230130Z 00000KT 2500 FU NSC 23/05 Q1010 TEMPO 2000M
Conditions at: VAAH (AHMADABAD , IN) observed 0130 UTC 23 April 2018
Temperature: 23.0°C (73°F)
Dewpoint: 5.0°C (41°F) [RH = 31%]
Pressure (altimeter): 29.82 inches Hg (1010.0 mb)
Winds: calm
Visibility: 1.55 miles (2.49 km)
Ceiling: at least 12,000 feet AGL
Clouds: sky clear below 12,000 feet AGL
Weather: FU  (smoke)

METAR text: VAAH 230100Z 00000KT 3000 FU NSC 22/03 Q1009 TEMPO 2000M
Conditions at: VAAH (AHMADABAD , IN) observed 0100 UTC 23 April 2018
Temperature: 22.0°C (72°F)
Dewpoint: 3.0°C (37°F) [RH = 29%]
Pressure (altimeter): 29.79 inches Hg (1009.0 mb)
Winds: calm
Visibility: 1.86 miles (2.99 km)
Ceiling: at least 12,000 feet AGL
Clouds: sky clear below 12,000 feet AGL
Weather: FU  (smoke)